sensor_id;sensor_type;location;lat;lon;timestamp;P1;durP1;ratioP1;P2;durP2;ratioP2
19836;SDS011;10079;55.740;37.662;2022-12-18T00:02:18;10.67;;;6.50;;
19836;SDS011;10079;55.740;37.662;2022-12-18T00:04:59;12.50;;;6.97;;
19836;SDS011;10079;55.740;37.662;2022-12-18T00:07:41;10.53;;;6.93;;
19836;SDS011;10079;55.740;37.662;2022-12-18T00:10:25;11.20;;;6.47;;
19836;SDS011;10079;55.740;37.662;2022-12-18T00:13:17;12.30;;;6.80;;
19836;SDS011;10079;55.740;37.662;2022-12-18T00:16:02;8.77;;;6.00;;
19836;SDS011;10079;55.740;37.662;2022-12-18T00:18:43;12.17;;;6.37;;
19836;SDS011;10079;55.740;37.662;2022-12-18T00:21:24;13.33;;;6.97;;
19836;SDS011;10079;55.740;37.662;2022-12-18T00:24:08;9.83;;;6.40;;
19836;SDS011;10079;55.740;37.662;2022-12-18T00:26:52;11.60;;;7.07;;
19836;SDS011;10079;55.740;37.662;2022-12-18T00:40:12;10.17;;;6.40;;
19836;SDS011;10079;55.740;37.662;2022-12-18T00:42:53;9.57;;;6.10;;
19836;SDS011;10079;55.740;37.662;2022-12-18T00:45:38;11.20;;;6.57;;
19836;SDS011;10079;55.740;37.662;2022-12-18T00:48:18;12.17;;;6.57;;
19836;SDS011;10079;55.740;37.662;2022-12-18T00:51:00;10.80;;;6.77;;
19836;SDS011;10079;55.740;37.662;2022-12-18T00:53:41;12.37;;;6.80;;
19836;SDS011;10079;55.740;37.662;2022-12-18T00:56:25;11.70;;;6.60;;
19836;SDS011;10079;55.740;37.662;2022-12-18T00:59:06;10.07;;;6.67;;
19836;SDS011;10079;55.740;37.662;2022-12-18T01:01:47;11.53;;;6.73;;
19836;SDS011;10079;55.740;37.662;2022-12-18T01:04:31;10.73;;;6.57;;
19836;SDS011;10079;55.740;37.662;2022-12-18T01:07:09;10.67;;;6.37;;
19836;SDS011;10079;55.740;37.662;2022-12-18T01:09:50;10.23;;;6.03;;
19836;SDS011;10079;55.740;37.662;2022-12-18T01:12:31;11.57;;;6.43;;
19836;SDS011;10079;55.740;37.662;2022-12-18T01:15:15;13.07;;;7.13;;
19836;SDS011;10079;55.740;37.662;2022-12-18T01:17:56;10.07;;;6.10;;
19836;SDS011;10079;55.740;37.662;2022-12-18T01:20:37;10.53;;;6.57;;
19836;SDS011;10079;55.740;37.662;2022-12-18T01:23:21;11.07;;;6.20;;
19836;SDS011;10079;55.740;37.662;2022-12-18T01:26:06;11.33;;;6.03;;
19836;SDS011;10079;55.740;37.662;2022-12-18T01:28:48;10.87;;;6.10;;
19836;SDS011;10079;55.740;37.662;2022-12-18T01:31:32;9.80;;;5.83;;
19836;SDS011;10079;55.740;37.662;2022-12-18T01:34:14;11.20;;;6.13;;
19836;SDS011;10079;55.740;37.662;2022-12-18T01:36:58;11.07;;;6.37;;
19836;SDS011;10079;55.740;37.662;2022-12-18T01:39:39;10.77;;;5.97;;
19836;SDS011;10079;55.740;37.662;2022-12-18T01:42:20;10.27;;;5.77;;
19836;SDS011;10079;55.740;37.662;2022-12-18T01:45:06;9.93;;;5.87;;
19836;SDS011;10079;55.740;37.662;2022-12-18T01:47:46;11.03;;;5.37;;
19836;SDS011;10079;55.740;37.662;2022-12-18T01:50:31;11.83;;;5.83;;
19836;SDS011;10079;55.740;37.662;2022-12-18T01:53:17;12.73;;;6.67;;
19836;SDS011;10079;55.740;37.662;2022-12-18T01:56:01;10.77;;;6.17;;
19836;SDS011;10079;55.740;37.662;2022-12-18T01:58:47;11.27;;;6.80;;
19836;SDS011;10079;55.740;37.662;2022-12-18T02:01:42;9.97;;;5.80;;
19836;SDS011;10079;55.740;37.662;2022-12-18T02:04:23;10.37;;;5.67;;
19836;SDS011;10079;55.740;37.662;2022-12-18T02:07:08;10.87;;;6.13;;
19836;SDS011;10079;55.740;37.662;2022-12-18T02:09:47;10.80;;;6.07;;
19836;SDS011;10079;55.740;37.662;2022-12-18T02:12:30;10.47;;;6.63;;
19836;SDS011;10079;55.740;37.662;2022-12-18T02:15:11;10.50;;;6.13;;
19836;SDS011;10079;55.740;37.662;2022-12-18T02:17:58;11.43;;;6.23;;
19836;SDS011;10079;55.740;37.662;2022-12-18T02:20:41;11.27;;;6.47;;
19836;SDS011;10079;55.740;37.662;2022-12-18T02:23:25;9.33;;;5.93;;
19836;SDS011;10079;55.740;37.662;2022-12-18T02:26:06;11.20;;;6.13;;
19836;SDS011;10079;55.740;37.662;2022-12-18T02:29:05;11.47;;;6.30;;
19836;SDS011;10079;55.740;37.662;2022-12-18T02:53:10;10.80;;;6.40;;
19836;SDS011;10079;55.740;37.662;2022-12-18T02:56:06;10.37;;;6.30;;
19836;SDS011;10079;55.740;37.662;2022-12-18T02:59:02;13.47;;;6.03;;
19836;SDS011;10079;55.740;37.662;2022-12-18T03:01:57;8.67;;;5.67;;
19836;SDS011;10079;55.740;37.662;2022-12-18T03:04:43;9.30;;;5.50;;
19836;SDS011;10079;55.740;37.662;2022-12-18T03:07:27;11.17;;;5.50;;
19836;SDS011;10079;55.740;37.662;2022-12-18T03:10:09;8.60;;;5.00;;
19836;SDS011;10079;55.740;37.662;2022-12-18T03:12:52;7.53;;;5.27;;
19836;SDS011;10079;55.740;37.662;2022-12-18T03:15:36;8.33;;;4.93;;
19836;SDS011;10079;55.740;37.662;2022-12-18T03:18:29;6.87;;;4.77;;
19836;SDS011;10079;55.740;37.662;2022-12-18T03:21:10;10.23;;;5.20;;
19836;SDS011;10079;55.740;37.662;2022-12-18T03:23:54;9.43;;;5.20;;
19836;SDS011;10079;55.740;37.662;2022-12-18T03:26:35;8.63;;;5.03;;
19836;SDS011;10079;55.740;37.662;2022-12-18T03:39:52;12.93;;;5.30;;
19836;SDS011;10079;55.740;37.662;2022-12-18T03:42:44;9.70;;;5.60;;
19836;SDS011;10079;55.740;37.662;2022-12-18T03:45:34;9.00;;;5.53;;
19836;SDS011;10079;55.740;37.662;2022-12-18T03:48:31;9.93;;;5.90;;
19836;SDS011;10079;55.740;37.662;2022-12-18T03:51:14;8.47;;;5.53;;
19836;SDS011;10079;55.740;37.662;2022-12-18T03:53:58;10.43;;;5.13;;
19836;SDS011;10079;55.740;37.662;2022-12-18T03:56:40;8.57;;;5.23;;
19836;SDS011;10079;55.740;37.662;2022-12-18T03:59:20;10.93;;;5.63;;
19836;SDS011;10079;55.740;37.662;2022-12-18T04:02:04;8.37;;;4.97;;
19836;SDS011;10079;55.740;37.662;2022-12-18T04:04:46;7.17;;;4.90;;
19836;SDS011;10079;55.740;37.662;2022-12-18T04:07:27;8.73;;;5.27;;
19836;SDS011;10079;55.740;37.662;2022-12-18T04:10:09;9.87;;;4.90;;
19836;SDS011;10079;55.740;37.662;2022-12-18T04:12:55;8.77;;;4.90;;
19836;SDS011;10079;55.740;37.662;2022-12-18T04:15:34;9.63;;;4.93;;
19836;SDS011;10079;55.740;37.662;2022-12-18T04:28:45;9.43;;;5.60;;
19836;SDS011;10079;55.740;37.662;2022-12-18T04:31:30;8.70;;;5.10;;
19836;SDS011;10079;55.740;37.662;2022-12-18T04:34:11;9.77;;;5.50;;
19836;SDS011;10079;55.740;37.662;2022-12-18T04:36:55;8.33;;;4.60;;
19836;SDS011;10079;55.740;37.662;2022-12-18T04:39:39;7.83;;;4.90;;
19836;SDS011;10079;55.740;37.662;2022-12-18T04:42:20;8.97;;;5.00;;
19836;SDS011;10079;55.740;37.662;2022-12-18T04:45:01;12.73;;;4.97;;
19836;SDS011;10079;55.740;37.662;2022-12-18T04:47:42;8.07;;;5.13;;
19836;SDS011;10079;55.740;37.662;2022-12-18T04:50:23;9.60;;;4.37;;
19836;SDS011;10079;55.740;37.662;2022-12-18T04:53:07;8.23;;;5.00;;
19836;SDS011;10079;55.740;37.662;2022-12-18T04:55:48;8.93;;;4.83;;
19836;SDS011;10079;55.740;37.662;2022-12-18T04:58:30;8.83;;;5.03;;
19836;SDS011;10079;55.740;37.662;2022-12-18T05:01:11;10.30;;;4.77;;
19836;SDS011;10079;55.740;37.662;2022-12-18T05:04:02;12.97;;;5.23;;
19836;SDS011;10079;55.740;37.662;2022-12-18T05:06:47;8.77;;;5.30;;
19836;SDS011;10079;55.740;37.662;2022-12-18T05:30:51;9.57;;;5.23;;
19836;SDS011;10079;55.740;37.662;2022-12-18T05:33:35;8.43;;;4.90;;
19836;SDS011;10079;55.740;37.662;2022-12-18T05:36:19;7.60;;;5.00;;
19836;SDS011;10079;55.740;37.662;2022-12-18T05:39:08;8.20;;;4.77;;
19836;SDS011;10079;55.740;37.662;2022-12-18T05:42:01;8.20;;;4.80;;
19836;SDS011;10079;55.740;37.662;2022-12-18T05:44:45;8.97;;;5.03;;
19836;SDS011;10079;55.740;37.662;2022-12-18T05:47:37;8.23;;;4.43;;
19836;SDS011;10079;55.740;37.662;2022-12-18T05:50:27;7.13;;;4.60;;
19836;SDS011;10079;55.740;37.662;2022-12-18T05:53:20;13.37;;;5.60;;
19836;SDS011;10079;55.740;37.662;2022-12-18T05:56:04;8.77;;;5.20;;
19836;SDS011;10079;55.740;37.662;2022-12-18T05:58:45;9.33;;;5.40;;
19836;SDS011;10079;55.740;37.662;2022-12-18T06:01:30;11.83;;;4.73;;
19836;SDS011;10079;55.740;37.662;2022-12-18T06:04:14;10.57;;;5.10;;
19836;SDS011;10079;55.740;37.662;2022-12-18T06:06:54;6.93;;;4.33;;
19836;SDS011;10079;55.740;37.662;2022-12-18T06:09:35;8.37;;;4.90;;
19836;SDS011;10079;55.740;37.662;2022-12-18T06:12:16;9.73;;;5.33;;
19836;SDS011;10079;55.740;37.662;2022-12-18T06:14:57;9.67;;;5.43;;
19836;SDS011;10079;55.740;37.662;2022-12-18T06:17:43;8.47;;;4.87;;
19836;SDS011;10079;55.740;37.662;2022-12-18T06:20:24;8.23;;;4.90;;
19836;SDS011;10079;55.740;37.662;2022-12-18T06:23:08;10.00;;;5.03;;
19836;SDS011;10079;55.740;37.662;2022-12-18T06:25:50;7.27;;;4.60;;
19836;SDS011;10079;55.740;37.662;2022-12-18T06:28:31;8.87;;;4.87;;
19836;SDS011;10079;55.740;37.662;2022-12-18T06:31:11;10.00;;;5.43;;
19836;SDS011;10079;55.740;37.662;2022-12-18T06:33:52;12.50;;;4.80;;
19836;SDS011;10079;55.740;37.662;2022-12-18T06:36:33;9.53;;;4.93;;
19836;SDS011;10079;55.740;37.662;2022-12-18T06:39:17;8.50;;;4.90;;
19836;SDS011;10079;55.740;37.662;2022-12-18T06:41:58;8.50;;;4.40;;
19836;SDS011;10079;55.740;37.662;2022-12-18T06:44:42;8.10;;;4.87;;
19836;SDS011;10079;55.740;37.662;2022-12-18T06:47:23;7.80;;;5.30;;
19836;SDS011;10079;55.740;37.662;2022-12-18T06:50:05;8.73;;;5.53;;
19836;SDS011;10079;55.740;37.662;2022-12-18T06:52:47;10.27;;;5.10;;
19836;SDS011;10079;55.740;37.662;2022-12-18T06:55:28;11.20;;;5.37;;
19836;SDS011;10079;55.740;37.662;2022-12-18T06:58:12;9.33;;;4.90;;
19836;SDS011;10079;55.740;37.662;2022-12-18T07:01:00;8.73;;;4.57;;
19836;SDS011;10079;55.740;37.662;2022-12-18T07:03:45;10.70;;;5.13;;
19836;SDS011;10079;55.740;37.662;2022-12-18T07:06:26;9.13;;;5.20;;
19836;SDS011;10079;55.740;37.662;2022-12-18T07:09:10;12.10;;;5.27;;
19836;SDS011;10079;55.740;37.662;2022-12-18T07:11:54;8.43;;;5.40;;
19836;SDS011;10079;55.740;37.662;2022-12-18T07:14:38;8.67;;;4.70;;
19836;SDS011;10079;55.740;37.662;2022-12-18T07:17:19;10.37;;;4.77;;
19836;SDS011;10079;55.740;37.662;2022-12-18T07:20:00;16.83;;;6.57;;
19836;SDS011;10079;55.740;37.662;2022-12-18T07:22:41;12.63;;;5.60;;
19836;SDS011;10079;55.740;37.662;2022-12-18T07:25:22;12.77;;;5.27;;
19836;SDS011;10079;55.740;37.662;2022-12-18T07:28:03;8.83;;;5.43;;
19836;SDS011;10079;55.740;37.662;2022-12-18T07:30:44;10.50;;;5.43;;
19836;SDS011;10079;55.740;37.662;2022-12-18T07:33:25;8.17;;;4.70;;
19836;SDS011;10079;55.740;37.662;2022-12-18T07:46:48;8.60;;;5.43;;
19836;SDS011;10079;55.740;37.662;2022-12-18T07:49:32;8.47;;;4.67;;
19836;SDS011;10079;55.740;37.662;2022-12-18T07:52:16;9.47;;;5.53;;
19836;SDS011;10079;55.740;37.662;2022-12-18T07:55:00;8.63;;;5.27;;
19836;SDS011;10079;55.740;37.662;2022-12-18T07:57:44;7.37;;;4.37;;
19836;SDS011;10079;55.740;37.662;2022-12-18T08:00:25;9.43;;;5.00;;
19836;SDS011;10079;55.740;37.662;2022-12-18T08:03:09;9.40;;;5.50;;
19836;SDS011;10079;55.740;37.662;2022-12-18T08:05:50;9.80;;;4.70;;
19836;SDS011;10079;55.740;37.662;2022-12-18T08:08:30;12.80;;;5.80;;
19836;SDS011;10079;55.740;37.662;2022-12-18T08:11:11;10.40;;;5.17;;
19836;SDS011;10079;55.740;37.662;2022-12-18T08:13:52;8.07;;;5.00;;
19836;SDS011;10079;55.740;37.662;2022-12-18T08:27:23;5.97;;;4.90;;
19836;SDS011;10079;55.740;37.662;2022-12-18T08:30:08;8.23;;;4.67;;
19836;SDS011;10079;55.740;37.662;2022-12-18T08:32:58;8.03;;;4.33;;
19836;SDS011;10079;55.740;37.662;2022-12-18T08:35:42;12.67;;;5.53;;
19836;SDS011;10079;55.740;37.662;2022-12-18T08:38:24;8.67;;;5.70;;
19836;SDS011;10079;55.740;37.662;2022-12-18T08:41:06;8.07;;;4.77;;
19836;SDS011;10079;55.740;37.662;2022-12-18T08:43:46;10.50;;;5.60;;
19836;SDS011;10079;55.740;37.662;2022-12-18T08:46:30;10.00;;;5.73;;
19836;SDS011;10079;55.740;37.662;2022-12-18T08:49:09;8.63;;;5.07;;
19836;SDS011;10079;55.740;37.662;2022-12-18T08:51:58;8.77;;;5.20;;
19836;SDS011;10079;55.740;37.662;2022-12-18T08:54:39;10.37;;;5.13;;
19836;SDS011;10079;55.740;37.662;2022-12-18T08:57:23;10.60;;;5.40;;
19836;SDS011;10079;55.740;37.662;2022-12-18T09:00:08;7.67;;;4.60;;
19836;SDS011;10079;55.740;37.662;2022-12-18T09:02:49;10.70;;;5.63;;
19836;SDS011;10079;55.740;37.662;2022-12-18T09:05:30;10.10;;;4.80;;
19836;SDS011;10079;55.740;37.662;2022-12-18T09:08:11;8.93;;;4.70;;
19836;SDS011;10079;55.740;37.662;2022-12-18T09:10:52;9.60;;;5.00;;
19836;SDS011;10079;55.740;37.662;2022-12-18T09:13:33;9.40;;;4.80;;
19836;SDS011;10079;55.740;37.662;2022-12-18T09:16:15;8.47;;;4.63;;
19836;SDS011;10079;55.740;37.662;2022-12-18T09:18:56;8.20;;;4.97;;
19836;SDS011;10079;55.740;37.662;2022-12-18T09:21:37;6.37;;;4.37;;
19836;SDS011;10079;55.740;37.662;2022-12-18T09:24:17;9.37;;;5.30;;
19836;SDS011;10079;55.740;37.662;2022-12-18T09:26:58;7.97;;;4.77;;
19836;SDS011;10079;55.740;37.662;2022-12-18T09:29:39;11.07;;;5.63;;
19836;SDS011;10079;55.740;37.662;2022-12-18T09:32:25;10.47;;;5.50;;
19836;SDS011;10079;55.740;37.662;2022-12-18T09:35:07;8.90;;;4.87;;
19836;SDS011;10079;55.740;37.662;2022-12-18T09:37:51;11.33;;;5.53;;
19836;SDS011;10079;55.740;37.662;2022-12-18T09:40:41;11.33;;;5.33;;
19836;SDS011;10079;55.740;37.662;2022-12-18T09:43:20;13.00;;;5.23;;
19836;SDS011;10079;55.740;37.662;2022-12-18T09:46:02;8.70;;;4.27;;
19836;SDS011;10079;55.740;37.662;2022-12-18T09:48:44;11.40;;;5.33;;
19836;SDS011;10079;55.740;37.662;2022-12-18T09:51:25;9.57;;;5.00;;
19836;SDS011;10079;55.740;37.662;2022-12-18T09:54:10;8.47;;;4.87;;
19836;SDS011;10079;55.740;37.662;2022-12-18T09:56:48;6.60;;;4.50;;
19836;SDS011;10079;55.740;37.662;2022-12-18T09:59:36;7.53;;;4.17;;
19836;SDS011;10079;55.740;37.662;2022-12-18T10:02:18;8.13;;;4.33;;
19836;SDS011;10079;55.740;37.662;2022-12-18T10:05:03;8.10;;;4.23;;
19836;SDS011;10079;55.740;37.662;2022-12-18T10:07:47;6.17;;;4.50;;
19836;SDS011;10079;55.740;37.662;2022-12-18T10:10:42;8.40;;;3.93;;
19836;SDS011;10079;55.740;37.662;2022-12-18T10:13:46;6.33;;;4.37;;
19836;SDS011;10079;55.740;37.662;2022-12-18T10:16:29;8.20;;;4.50;;
19836;SDS011;10079;55.740;37.662;2022-12-18T10:28:54;8.37;;;4.40;;
19836;SDS011;10079;55.740;37.662;2022-12-18T10:31:38;10.37;;;5.03;;
19836;SDS011;10079;55.740;37.662;2022-12-18T10:34:31;6.43;;;4.30;;
19836;SDS011;10079;55.740;37.662;2022-12-18T10:37:25;9.27;;;4.90;;
19836;SDS011;10079;55.740;37.662;2022-12-18T10:50:39;11.33;;;5.30;;
19836;SDS011;10079;55.740;37.662;2022-12-18T10:53:24;9.23;;;5.37;;
19836;SDS011;10079;55.740;37.662;2022-12-18T10:56:05;10.47;;;4.87;;
19836;SDS011;10079;55.740;37.662;2022-12-18T10:59:00;8.90;;;5.30;;
19836;SDS011;10079;55.740;37.662;2022-12-18T11:01:46;9.60;;;5.47;;
19836;SDS011;10079;55.740;37.662;2022-12-18T11:04:31;10.20;;;4.40;;
19836;SDS011;10079;55.740;37.662;2022-12-18T11:07:12;9.20;;;4.67;;
19836;SDS011;10079;55.740;37.662;2022-12-18T11:09:59;8.43;;;4.20;;
19836;SDS011;10079;55.740;37.662;2022-12-18T11:12:49;8.20;;;4.50;;
19836;SDS011;10079;55.740;37.662;2022-12-18T11:15:29;9.57;;;5.33;;
19836;SDS011;10079;55.740;37.662;2022-12-18T11:18:16;8.40;;;4.97;;
19836;SDS011;10079;55.740;37.662;2022-12-18T11:21:10;10.23;;;5.00;;
19836;SDS011;10079;55.740;37.662;2022-12-18T11:23:51;6.73;;;4.47;;
19836;SDS011;10079;55.740;37.662;2022-12-18T11:26:35;5.80;;;3.83;;
19836;SDS011;10079;55.740;37.662;2022-12-18T11:29:28;10.30;;;4.53;;
19836;SDS011;10079;55.740;37.662;2022-12-18T11:35:17;10.57;;;4.70;;
19836;SDS011;10079;55.740;37.662;2022-12-18T11:41:01;6.60;;;3.87;;
19836;SDS011;10079;55.740;37.662;2022-12-18T11:43:58;7.77;;;4.13;;
19836;SDS011;10079;55.740;37.662;2022-12-18T11:46:51;6.47;;;4.17;;
19836;SDS011;10079;55.740;37.662;2022-12-18T11:49:48;9.73;;;4.73;;
19836;SDS011;10079;55.740;37.662;2022-12-18T11:52:31;8.63;;;4.43;;
19836;SDS011;10079;55.740;37.662;2022-12-18T11:55:14;13.70;;;5.80;;
19836;SDS011;10079;55.740;37.662;2022-12-18T11:58:01;8.50;;;4.50;;
19836;SDS011;10079;55.740;37.662;2022-12-18T12:00:47;5.50;;;3.90;;
19836;SDS011;10079;55.740;37.662;2022-12-18T12:06:53;9.57;;;4.10;;
19836;SDS011;10079;55.740;37.662;2022-12-18T12:12:38;10.37;;;4.40;;
19836;SDS011;10079;55.740;37.662;2022-12-18T12:15:32;7.37;;;3.90;;
19836;SDS011;10079;55.740;37.662;2022-12-18T12:18:44;5.93;;;3.63;;
19836;SDS011;10079;55.740;37.662;2022-12-18T12:21:53;8.97;;;5.40;;
19836;SDS011;10079;55.740;37.662;2022-12-18T12:24:51;5.57;;;3.67;;
19836;SDS011;10079;55.740;37.662;2022-12-18T12:27:54;8.83;;;3.87;;
19836;SDS011;10079;55.740;37.662;2022-12-18T12:30:50;7.57;;;4.03;;
19836;SDS011;10079;55.740;37.662;2022-12-18T12:33:37;10.07;;;5.27;;
19836;SDS011;10079;55.740;37.662;2022-12-18T12:36:23;7.87;;;3.93;;
19836;SDS011;10079;55.740;37.662;2022-12-18T12:39:10;11.40;;;4.90;;
19836;SDS011;10079;55.740;37.662;2022-12-18T12:41:52;8.30;;;5.00;;
19836;SDS011;10079;55.740;37.662;2022-12-18T12:55:24;11.50;;;5.03;;
19836;SDS011;10079;55.740;37.662;2022-12-18T12:58:22;9.97;;;4.77;;
19836;SDS011;10079;55.740;37.662;2022-12-18T13:14:36;6.13;;;3.63;;
19836;SDS011;10079;55.740;37.662;2022-12-18T13:17:27;5.87;;;3.60;;
19836;SDS011;10079;55.740;37.662;2022-12-18T13:20:12;6.10;;;4.07;;
19836;SDS011;10079;55.740;37.662;2022-12-18T13:22:53;7.10;;;3.73;;
19836;SDS011;10079;55.740;37.662;2022-12-18T13:25:34;5.93;;;3.87;;
19836;SDS011;10079;55.740;37.662;2022-12-18T13:28:18;8.87;;;3.90;;
19836;SDS011;10079;55.740;37.662;2022-12-18T13:31:09;7.37;;;3.97;;
19836;SDS011;10079;55.740;37.662;2022-12-18T13:33:50;9.17;;;4.27;;
19836;SDS011;10079;55.740;37.662;2022-12-18T13:36:32;10.07;;;4.90;;
19836;SDS011;10079;55.740;37.662;2022-12-18T13:39:21;15.53;;;5.60;;
19836;SDS011;10079;55.740;37.662;2022-12-18T13:48:29;14.50;;;6.10;;
19836;SDS011;10079;55.740;37.662;2022-12-18T13:51:23;12.10;;;6.60;;
19836;SDS011;10079;55.740;37.662;2022-12-18T13:54:10;15.47;;;5.93;;
19836;SDS011;10079;55.740;37.662;2022-12-18T13:56:47;15.00;;;7.63;;
19836;SDS011;10079;55.740;37.662;2022-12-18T13:59:33;14.10;;;7.30;;
19836;SDS011;10079;55.740;37.662;2022-12-18T14:02:15;14.93;;;6.80;;
19836;SDS011;10079;55.740;37.662;2022-12-18T14:04:55;14.93;;;7.47;;
19836;SDS011;10079;55.740;37.662;2022-12-18T14:07:36;14.60;;;7.17;;
19836;SDS011;10079;55.740;37.662;2022-12-18T14:10:18;15.83;;;7.83;;
19836;SDS011;10079;55.740;37.662;2022-12-18T14:13:03;16.13;;;7.87;;
19836;SDS011;10079;55.740;37.662;2022-12-18T14:15:44;15.30;;;7.57;;
19836;SDS011;10079;55.740;37.662;2022-12-18T14:18:31;16.87;;;6.83;;
19836;SDS011;10079;55.740;37.662;2022-12-18T14:21:17;14.97;;;7.43;;
19836;SDS011;10079;55.740;37.662;2022-12-18T14:24:13;14.77;;;7.33;;
19836;SDS011;10079;55.740;37.662;2022-12-18T14:29:53;16.37;;;7.27;;
19836;SDS011;10079;55.740;37.662;2022-12-18T14:32:34;13.30;;;5.87;;
19836;SDS011;10079;55.740;37.662;2022-12-18T14:35:18;12.83;;;6.40;;
19836;SDS011;10079;55.740;37.662;2022-12-18T14:38:09;10.40;;;5.40;;
19836;SDS011;10079;55.740;37.662;2022-12-18T14:41:13;13.53;;;5.93;;
19836;SDS011;10079;55.740;37.662;2022-12-18T14:43:54;15.07;;;5.53;;
19836;SDS011;10079;55.740;37.662;2022-12-18T14:46:39;12.77;;;5.50;;
19836;SDS011;10079;55.740;37.662;2022-12-18T14:49:22;10.47;;;5.53;;
19836;SDS011;10079;55.740;37.662;2022-12-18T14:52:17;11.07;;;5.30;;
19836;SDS011;10079;55.740;37.662;2022-12-18T14:55:02;9.33;;;4.63;;
19836;SDS011;10079;55.740;37.662;2022-12-18T14:57:55;6.90;;;4.33;;
19836;SDS011;10079;55.740;37.662;2022-12-18T15:00:36;7.93;;;4.23;;
19836;SDS011;10079;55.740;37.662;2022-12-18T15:03:18;7.33;;;4.10;;
19836;SDS011;10079;55.740;37.662;2022-12-18T15:06:14;8.90;;;4.10;;
19836;SDS011;10079;55.740;37.662;2022-12-18T15:08:39;8.30;;;4.70;;
19836;SDS011;10079;55.740;37.662;2022-12-18T15:11:25;10.87;;;5.07;;
19836;SDS011;10079;55.740;37.662;2022-12-18T15:14:32;7.37;;;4.60;;
19836;SDS011;10079;55.740;37.662;2022-12-18T15:17:18;8.97;;;4.10;;
19836;SDS011;10079;55.740;37.662;2022-12-18T15:20:03;6.10;;;3.90;;
19836;SDS011;10079;55.740;37.662;2022-12-18T15:33:44;6.13;;;3.77;;
19836;SDS011;10079;55.740;37.662;2022-12-18T15:36:30;6.67;;;3.57;;
19836;SDS011;10079;55.740;37.662;2022-12-18T15:39:23;6.73;;;3.90;;
19836;SDS011;10079;55.740;37.662;2022-12-18T15:42:04;5.93;;;3.23;;
19836;SDS011;10079;55.740;37.662;2022-12-18T15:44:51;5.57;;;3.40;;
19836;SDS011;10079;55.740;37.662;2022-12-18T15:47:35;5.33;;;3.80;;
19836;SDS011;10079;55.740;37.662;2022-12-18T15:50:16;6.03;;;3.73;;
19836;SDS011;10079;55.740;37.662;2022-12-18T15:53:00;4.77;;;3.27;;
19836;SDS011;10079;55.740;37.662;2022-12-18T15:55:41;5.30;;;3.27;;
19836;SDS011;10079;55.740;37.662;2022-12-18T15:58:25;8.00;;;4.17;;
19836;SDS011;10079;55.740;37.662;2022-12-18T16:01:09;7.70;;;4.23;;
19836;SDS011;10079;55.740;37.662;2022-12-18T16:03:53;6.87;;;4.27;;
19836;SDS011;10079;55.740;37.662;2022-12-18T16:06:34;7.67;;;4.07;;
19836;SDS011;10079;55.740;37.662;2022-12-18T16:09:15;10.13;;;4.87;;
19836;SDS011;10079;55.740;37.662;2022-12-18T16:11:59;8.33;;;4.33;;
19836;SDS011;10079;55.740;37.662;2022-12-18T16:14:52;10.00;;;4.97;;
19836;SDS011;10079;55.740;37.662;2022-12-18T16:17:32;7.03;;;4.80;;
19836;SDS011;10079;55.740;37.662;2022-12-18T16:20:14;9.43;;;4.97;;
19836;SDS011;10079;55.740;37.662;2022-12-18T16:22:59;9.83;;;4.53;;
19836;SDS011;10079;55.740;37.662;2022-12-18T16:25:39;6.90;;;4.43;;
19836;SDS011;10079;55.740;37.662;2022-12-18T16:28:20;7.13;;;4.40;;
19836;SDS011;10079;55.740;37.662;2022-12-18T16:31:01;7.67;;;4.00;;
19836;SDS011;10079;55.740;37.662;2022-12-18T16:33:44;7.43;;;4.03;;
19836;SDS011;10079;55.740;37.662;2022-12-18T16:36:25;7.73;;;4.33;;
19836;SDS011;10079;55.740;37.662;2022-12-18T16:39:09;8.77;;;4.10;;
19836;SDS011;10079;55.740;37.662;2022-12-18T16:41:51;6.43;;;3.93;;
19836;SDS011;10079;55.740;37.662;2022-12-18T16:44:32;9.20;;;4.00;;
19836;SDS011;10079;55.740;37.662;2022-12-18T16:47:26;7.43;;;4.73;;
19836;SDS011;10079;55.740;37.662;2022-12-18T16:50:07;6.50;;;4.20;;
19836;SDS011;10079;55.740;37.662;2022-12-18T16:52:48;9.10;;;4.37;;
19836;SDS011;10079;55.740;37.662;2022-12-18T16:55:29;7.50;;;4.57;;
19836;SDS011;10079;55.740;37.662;2022-12-18T16:58:11;8.47;;;4.67;;
19836;SDS011;10079;55.740;37.662;2022-12-18T17:00:52;9.37;;;5.03;;
19836;SDS011;10079;55.740;37.662;2022-12-18T17:03:50;9.07;;;5.17;;
19836;SDS011;10079;55.740;37.662;2022-12-18T17:06:39;9.13;;;5.20;;
19836;SDS011;10079;55.740;37.662;2022-12-18T17:09:20;8.97;;;4.97;;
19836;SDS011;10079;55.740;37.662;2022-12-18T17:12:01;7.70;;;4.07;;
19836;SDS011;10079;55.740;37.662;2022-12-18T17:14:41;8.47;;;4.27;;
19836;SDS011;10079;55.740;37.662;2022-12-18T17:17:22;8.10;;;4.17;;
19836;SDS011;10079;55.740;37.662;2022-12-18T17:20:04;7.70;;;4.17;;
19836;SDS011;10079;55.740;37.662;2022-12-18T17:22:45;7.00;;;4.00;;
19836;SDS011;10079;55.740;37.662;2022-12-18T17:25:26;9.37;;;4.90;;
19836;SDS011;10079;55.740;37.662;2022-12-18T17:28:07;9.37;;;4.23;;
19836;SDS011;10079;55.740;37.662;2022-12-18T17:30:48;7.10;;;4.20;;
19836;SDS011;10079;55.740;37.662;2022-12-18T17:33:29;7.37;;;4.43;;
19836;SDS011;10079;55.740;37.662;2022-12-18T17:36:11;8.80;;;4.90;;
19836;SDS011;10079;55.740;37.662;2022-12-18T17:38:55;6.87;;;4.23;;
19836;SDS011;10079;55.740;37.662;2022-12-18T17:41:35;8.17;;;5.03;;
19836;SDS011;10079;55.740;37.662;2022-12-18T17:44:16;9.20;;;5.43;;
19836;SDS011;10079;55.740;37.662;2022-12-18T17:46:57;9.20;;;5.43;;
19836;SDS011;10079;55.740;37.662;2022-12-18T17:49:38;8.53;;;4.90;;
19836;SDS011;10079;55.740;37.662;2022-12-18T17:52:19;11.93;;;4.93;;
19836;SDS011;10079;55.740;37.662;2022-12-18T17:55:00;8.37;;;4.57;;
19836;SDS011;10079;55.740;37.662;2022-12-18T17:57:44;7.57;;;4.60;;
19836;SDS011;10079;55.740;37.662;2022-12-18T18:00:38;7.93;;;4.73;;
19836;SDS011;10079;55.740;37.662;2022-12-18T18:03:21;7.83;;;4.80;;
19836;SDS011;10079;55.740;37.662;2022-12-18T18:06:12;10.30;;;5.30;;
19836;SDS011;10079;55.740;37.662;2022-12-18T18:08:56;13.20;;;4.70;;
19836;SDS011;10079;55.740;37.662;2022-12-18T18:22:25;7.83;;;5.13;;
19836;SDS011;10079;55.740;37.662;2022-12-18T18:25:05;9.27;;;5.60;;
19836;SDS011;10079;55.740;37.662;2022-12-18T18:27:59;8.67;;;4.83;;
19836;SDS011;10079;55.740;37.662;2022-12-18T18:30:43;8.20;;;4.20;;
19836;SDS011;10079;55.740;37.662;2022-12-18T18:33:24;9.10;;;5.00;;
19836;SDS011;10079;55.740;37.662;2022-12-18T18:36:08;10.70;;;4.73;;
19836;SDS011;10079;55.740;37.662;2022-12-18T18:38:47;6.93;;;4.07;;
19836;SDS011;10079;55.740;37.662;2022-12-18T18:52:14;11.10;;;5.60;;
19836;SDS011;10079;55.740;37.662;2022-12-18T18:54:58;9.50;;;5.30;;
19836;SDS011;10079;55.740;37.662;2022-12-18T18:57:39;11.40;;;5.80;;
19836;SDS011;10079;55.740;37.662;2022-12-18T19:00:20;8.67;;;5.10;;
19836;SDS011;10079;55.740;37.662;2022-12-18T19:03:13;10.50;;;5.10;;
19836;SDS011;10079;55.740;37.662;2022-12-18T19:06:04;10.67;;;5.57;;
19836;SDS011;10079;55.740;37.662;2022-12-18T19:08:48;10.03;;;5.43;;
19836;SDS011;10079;55.740;37.662;2022-12-18T19:11:32;11.33;;;5.90;;
19836;SDS011;10079;55.740;37.662;2022-12-18T19:14:16;12.07;;;6.00;;
19836;SDS011;10079;55.740;37.662;2022-12-18T19:16:57;10.83;;;6.20;;
19836;SDS011;10079;55.740;37.662;2022-12-18T19:19:38;9.70;;;5.40;;
19836;SDS011;10079;55.740;37.662;2022-12-18T19:22:22;14.80;;;6.30;;
19836;SDS011;10079;55.740;37.662;2022-12-18T19:25:04;12.43;;;6.40;;